Lemoore Naval Air Station (Reeves Field) Airport
KNLC : rendu visible

Aérodrome :











RETROUVEZ-NOUS SUR...

 
LOGIN :

S'inscrire | Disclaimer

   EN    FR    IT 

 









Légende :    VFR   VFR Marginal   IFR   IFR Intensif   IFR Très Intensif
Visi : 
Plafond : 
>= 8 km
>= 3000ft
5 à 8 km
1000 à 3000 ft
1500m à 5 km
500 à 1000 ft
800 à 1500m
200 à 500 ft
< 800m
< 200 ft
Symboles :   Orages  Brouillard  Fortes neiges  Fortes précipitations  Vent > 20 kt






- Altitude de l'aérodrome : 232 ft


KNLC - Lemoore Naval Air Station (Reeves Field)

DERNIER METAR :
  • 300256Z 25023G29KT 10SM FEW160 BKN220 BKN270 27/06 A2977 RMK AO2 PK WND 25031/0201 SLP078 RH/25 T02670056 53008

METARs EXPIRÉS :
  • 300156Z 24021G30KT 10SM FEW140 BKN220 BKN270 29/05 A2976 RMK AO2 PK WND 24034/0113 SLP075 RH/21 T02940050
  • 300056Z 24025G33KT 10SM SCT140 BKN220 BKN270 31/06 A2974 RMK AO2 PK WND 25033/0054 SLP071 RH/20 T03110061

TAF AMD TAF KNLC
Valide du 30 à 03h jusqu'au 30 à 23h UTC


3003/3023 25023G31KT 9999 FEW160 BKN240 BKN270 530209 531103 QNH2972INS
FM300500 27015G22KT 9999 FEW160 BKN240 BKN270 530209 531103 QNH2973INS
FM300900 32007KT 9999 SCT240 BKN280 532809 QNH2975INS
BECMG 3016/3017 VRB06KT 9999 BKN210 BKN280 532809 QNH2981INS T15/3013Z T26/3023Z AMD 0257 FS30067
FIR KZOA / Amérique du Nord



MET'MAP, la Météo Aéronautique d'un coup d'oeil ! - Copyright ORBIFLY Décembre 2007 - Disclaimer

ORBIFLY MET'MAP TEAM :

Programmation & Développement : Alexandra Zaïnal
Sur une idée originale de : Baudouin d'Aumeries
Assistance à la programmation : Marc-Olivier Méhu
Soutien technique & logistique : Manuel Goepfert

Contact : metmap@orbifly.com




SOURCES & CREDITS :

   NOAA       Earth
Advisory